Time;durP1;ratioP1;P1;durP2;ratioP2;P2;SDS_P1;SDS_P2;PMS_P1;PMS_P2;Temp;Humidity;BMP_temperature;BMP_pressure;BME280_temperature;BME280_humidity;BME280_pressure;Samples;Min_cycle;Max_cycle;Signal;HPM_P1;HPM_P2
2021/06/30 00:00:40;;;;;;;0.68;0.68;;;25.70;43.80;;;;;;5057083;28;20236;-42
2021/06/30 00:03:07;;;;;;;0.75;0.70;;;25.70;43.70;;;;;;5057530;28;20725;-44
2021/06/30 00:05:33;;;;;;;1.25;1.00;;;25.70;43.70;;;;;;5053944;28;20256;-46
2021/06/30 00:07:59;;;;;;;0.98;0.90;;;25.70;43.70;;;;;;5054245;28;20212;-43
2021/06/30 00:10:26;;;;;;;0.90;0.90;;;25.70;43.70;;;;;;5054063;28;20232;-46
2021/06/30 00:12:52;;;;;;;1.30;0.70;;;25.70;43.70;;;;;;5055174;28;20194;-51
2021/06/30 00:15:19;;;;;;;0.90;0.90;;;25.70;43.80;;;;;;5060165;28;20292;-45
2021/06/30 00:17:45;;;;;;;1.55;0.80;;;25.70;43.70;;;;;;5065148;28;20280;-46
2021/06/30 00:20:12;;;;;;;0.70;0.70;;;25.70;43.70;;;;;;5054830;28;20220;-42
2021/06/30 00:22:38;;;;;;;0.70;0.70;;;25.70;43.70;;;;;;5052966;28;20305;-47
2021/06/30 00:25:04;;;;;;;0.70;0.70;;;25.70;43.80;;;;;;5052867;28;20194;-46
2021/06/30 00:27:31;;;;;;;1.05;0.80;;;25.70;43.80;;;;;;5052853;28;20197;-42
2021/06/30 00:29:57;;;;;;;0.90;0.90;;;25.70;43.80;;;;;;5062502;28;20236;-43
2021/06/30 00:32:24;;;;;;;0.80;0.80;;;25.70;43.80;;;;;;5070489;28;20735;-42
2021/06/30 00:34:50;;;;;;;0.98;0.88;;;25.70;43.80;;;;;;5052848;28;20538;-42
2021/06/30 00:37:17;;;;;;;0.82;0.70;;;25.70;43.90;;;;;;5052549;28;20554;-44
2021/06/30 00:39:43;;;;;;;1.52;0.80;;;25.70;43.90;;;;;;5055380;28;20615;-42
2021/06/30 00:42:10;;;;;;;0.93;0.90;;;25.70;43.90;;;;;;5064417;28;20621;-43
2021/06/30 00:44:36;;;;;;;0.77;0.77;;;25.70;44.00;;;;;;5055015;28;20605;-45
2021/06/30 00:47:02;;;;;;;1.25;0.80;;;25.70;44.00;;;;;;5062931;28;20568;-42
2021/06/30 00:49:29;;;;;;;0.70;0.68;;;25.70;44.00;;;;;;5057462;28;20325;-47
2021/06/30 00:51:55;;;;;;;1.40;0.90;;;25.70;44.10;;;;;;5059764;28;20207;-43
2021/06/30 00:54:22;;;;;;;0.65;0.63;;;25.70;44.10;;;;;;5064588;28;20202;-46
2021/06/30 00:56:48;;;;;;;0.88;0.88;;;25.70;44.20;;;;;;5058378;28;20312;-45
2021/06/30 00:59:15;;;;;;;0.82;0.82;;;25.70;44.20;;;;;;5070155;28;20201;-44
2021/06/30 01:01:41;;;;;;;1.08;0.75;;;25.70;44.20;;;;;;5072182;28;20205;-43
2021/06/30 01:04:08;;;;;;;1.02;0.82;;;25.70;44.20;;;;;;5062201;28;20214;-48
2021/06/30 01:06:34;;;;;;;0.70;0.70;;;25.70;44.20;;;;;;5053283;28;20206;-43
2021/06/30 01:09:03;;;;;;;1.15;0.88;;;25.70;44.30;;;;;;5061170;28;20201;-48
2021/06/30 01:11:30;;;;;;;0.80;0.80;;;25.70;44.30;;;;;;5053003;28;20202;-46
2021/06/30 01:13:56;;;;;;;1.02;0.80;;;25.70;44.20;;;;;;5055341;28;20311;-45
2021/06/30 01:16:22;;;;;;;1.00;0.90;;;25.70;44.20;;;;;;5067564;28;20495;-43
2021/06/30 01:18:49;;;;;;;0.70;0.70;;;25.70;44.20;;;;;;5052926;28;20198;-43
2021/06/30 01:21:16;;;;;;;1.00;0.95;;;25.70;44.20;;;;;;5058907;28;20222;-44
2021/06/30 01:23:42;;;;;;;0.75;0.70;;;25.70;44.20;;;;;;5052731;28;20225;-43
2021/06/30 01:26:09;;;;;;;0.80;0.80;;;25.70;44.20;;;;;;5055820;28;20643;-43
2021/06/30 01:28:35;;;;;;;1.27;0.75;;;25.70;44.20;;;;;;5068832;28;20197;-44
2021/06/30 01:31:02;;;;;;;0.98;0.75;;;25.70;44.20;;;;;;5063798;28;20225;-44
2021/06/30 01:33:28;;;;;;;1.58;0.80;;;25.70;44.20;;;;;;5053839;28;20543;-46
2021/06/30 01:35:55;;;;;;;1.25;0.80;;;25.70;44.20;;;;;;5060948;28;20568;-42
2021/06/30 01:38:22;;;;;;;0.93;0.90;;;25.70;44.20;;;;;;5058972;28;20557;-42
2021/06/30 01:40:48;;;;;;;0.90;0.80;;;25.70;44.20;;;;;;5060640;28;20244;-46
2021/06/30 01:43:15;;;;;;;1.30;0.95;;;25.70;44.20;;;;;;5051293;28;20218;-42
2021/06/30 01:45:41;;;;;;;1.00;0.90;;;25.70;44.20;;;;;;5053777;28;20197;-43
2021/06/30 01:48:08;;;;;;;0.85;0.80;;;25.70;44.20;;;;;;5061108;28;20297;-43
2021/06/30 01:50:34;;;;;;;1.40;0.80;;;25.70;44.20;;;;;;5058905;28;20303;-45
2021/06/30 01:53:02;;;;;;;0.77;0.77;;;25.70;44.20;;;;;;5068688;28;20208;-49
2021/06/30 01:55:29;;;;;;;0.80;0.80;;;25.70;44.20;;;;;;5063176;28;20274;-52
2021/06/30 01:57:55;;;;;;;0.82;0.82;;;25.70;44.20;;;;;;5059864;28;20284;-48
2021/06/30 02:00:21;;;;;;;1.42;0.90;;;25.80;44.30;;;;;;5066763;28;20677;-42
2021/06/30 02:02:48;;;;;;;1.92;0.90;;;25.70;44.20;;;;;;5065561;28;20587;-46
2021/06/30 02:05:14;;;;;;;0.85;0.85;;;25.70;44.20;;;;;;5055001;28;20284;-52
2021/06/30 02:07:41;;;;;;;1.05;1.00;;;25.70;44.20;;;;;;5052660;28;20228;-46
2021/06/30 02:10:07;;;;;;;1.00;0.80;;;25.70;44.20;;;;;;5052875;28;20321;-45
2021/06/30 02:12:34;;;;;;;1.63;0.90;;;25.70;44.30;;;;;;5052322;28;20216;-49
2021/06/30 02:15:00;;;;;;;1.40;1.00;;;25.70;44.20;;;;;;5050930;28;20216;-47
2021/06/30 02:17:27;;;;;;;1.02;0.80;;;25.70;44.20;;;;;;5068006;28;20201;-45
2021/06/30 02:19:53;;;;;;;0.90;0.90;;;25.70;44.30;;;;;;5050687;28;20222;-42
2021/06/30 02:22:19;;;;;;;0.73;0.73;;;25.70;44.30;;;;;;5051667;28;20233;-47
2021/06/30 02:24:46;;;;;;;0.70;0.70;;;25.70;44.20;;;;;;5057613;28;20201;-46
2021/06/30 02:27:12;;;;;;;0.80;0.80;;;25.70;44.30;;;;;;5051088;28;20293;-52
2021/06/30 02:29:39;;;;;;;1.05;0.70;;;25.70;44.20;;;;;;5058800;28;20304;-45
2021/06/30 02:32:05;;;;;;;0.93;0.93;;;25.70;44.90;;;;;;5054540;28;20220;-45
2021/06/30 02:34:32;;;;;;;0.88;0.80;;;25.70;44.20;;;;;;5051462;28;20216;-48
2021/06/30 02:36:58;;;;;;;1.35;0.82;;;25.70;44.20;;;;;;5066368;28;20292;-47
2021/06/30 02:39:25;;;;;;;1.23;0.77;;;25.70;44.90;;;;;;5056745;28;20228;-46
2021/06/30 02:41:51;;;;;;;0.80;0.80;;;25.70;44.30;;;;;;5069106;28;20219;-47
2021/06/30 02:44:18;;;;;;;0.70;0.70;;;25.70;44.20;;;;;;5065057;28;20239;-47
2021/06/30 02:46:44;;;;;;;0.80;0.80;;;25.70;44.20;;;;;;5065501;28;20644;-45
2021/06/30 02:49:10;;;;;;;0.90;0.90;;;25.70;44.20;;;;;;5053270;28;20221;-48
2021/06/30 02:51:37;;;;;;;0.73;0.73;;;25.70;44.20;;;;;;5068551;28;20259;-43
2021/06/30 02:54:03;;;;;;;0.80;0.80;;;25.70;44.30;;;;;;5061650;28;20201;-49
2021/06/30 02:56:30;;;;;;;0.80;0.80;;;25.70;44.20;;;;;;5054993;28;20201;-45
2021/06/30 02:58:56;;;;;;;0.80;0.80;;;25.70;44.20;;;;;;5055828;28;20223;-45
2021/06/30 03:01:23;;;;;;;1.48;0.75;;;25.70;44.20;;;;;;5055072;28;20205;-48
2021/06/30 03:03:49;;;;;;;1.13;0.70;;;25.70;44.20;;;;;;5063042;28;20276;-50
2021/06/30 03:06:16;;;;;;;0.80;0.80;;;25.70;44.10;;;;;;5061239;28;20193;-52
2021/06/30 03:08:42;;;;;;;0.60;0.60;;;25.70;44.00;;;;;;5059148;28;20228;-50
2021/06/30 03:11:08;;;;;;;0.90;0.90;;;25.70;44.00;;;;;;5056742;28;20293;-43
2021/06/30 03:13:35;;;;;;;0.73;0.73;;;25.70;44.00;;;;;;5057345;28;20620;-43
2021/06/30 03:16:02;;;;;;;1.55;0.80;;;25.70;44.00;;;;;;5066372;28;20213;-47
2021/06/30 03:18:28;;;;;;;0.93;0.73;;;25.70;44.00;;;;;;5061143;28;20203;-55
2021/06/30 03:20:55;;;;;;;0.63;0.60;;;25.70;44.00;;;;;;5053309;28;20292;-53
2021/06/30 03:23:21;;;;;;;0.60;0.60;;;25.70;43.90;;;;;;5052712;28;20316;-47
2021/06/30 03:25:48;;;;;;;0.70;0.70;;;25.70;43.90;;;;;;5054615;28;20200;-47
2021/06/30 03:28:14;;;;;;;0.95;0.82;;;25.70;43.90;;;;;;5071539;28;20634;-45
2021/06/30 03:30:42;;;;;;;0.65;0.65;;;25.70;43.90;;;;;;5067101;28;20284;-43
2021/06/30 03:33:08;;;;;;;0.70;0.70;;;25.60;43.80;;;;;;5053908;28;20216;-45
2021/06/30 03:35:34;;;;;;;0.80;0.80;;;25.70;43.90;;;;;;5053187;28;20204;-47
2021/06/30 03:38:01;;;;;;;0.88;0.88;;;25.70;43.80;;;;;;5057507;28;20208;-42
2021/06/30 03:40:27;;;;;;;0.80;0.80;;;25.70;43.80;;;;;;5065206;28;20231;-47
2021/06/30 03:42:54;;;;;;;0.80;0.80;;;25.70;43.80;;;;;;5070235;28;20755;-48
2021/06/30 03:45:20;;;;;;;0.73;0.70;;;25.70;43.80;;;;;;5053686;28;20673;-43
2021/06/30 03:47:47;;;;;;;0.77;0.77;;;25.70;43.70;;;;;;5057886;28;20823;-44
2021/06/30 03:50:13;;;;;;;0.70;0.70;;;25.70;43.70;;;;;;5074717;28;20247;-46
2021/06/30 03:52:40;;;;;;;0.80;0.70;;;25.70;43.70;;;;;;5068307;28;20228;-47
2021/06/30 03:55:06;;;;;;;1.05;0.95;;;25.70;43.70;;;;;;5066339;28;20285;-48
2021/06/30 03:57:32;;;;;;;0.95;0.70;;;25.70;43.70;;;;;;5058944;28;20573;-49
2021/06/30 03:59:59;;;;;;;2.65;0.82;;;25.70;43.70;;;;;;5054996;28;20217;-44
2021/06/30 04:02:25;;;;;;;0.77;0.77;;;25.70;43.70;;;;;;5059393;28;20216;-47
2021/06/30 04:04:52;;;;;;;0.70;0.70;;;25.60;43.60;;;;;;5071341;28;20229;-52
2021/06/30 04:07:18;;;;;;;1.00;0.90;;;25.70;43.60;;;;;;5071938;28;20201;-46
2021/06/30 04:09:45;;;;;;;1.05;0.73;;;25.70;43.60;;;;;;5060520;28;20312;-45
2021/06/30 04:12:11;;;;;;;0.60;0.60;;;25.70;43.60;;;;;;5052999;28;20205;-46
2021/06/30 04:14:38;;;;;;;0.70;0.70;;;25.60;43.60;;;;;;5053917;28;20292;-50
2021/06/30 04:17:04;;;;;;;0.90;0.80;;;25.70;43.60;;;;;;5051983;28;20198;-50
2021/06/30 04:19:30;;;;;;;0.70;0.70;;;25.70;43.60;;;;;;5053541;28;20313;-47
2021/06/30 04:21:57;;;;;;;0.60;0.60;;;25.70;43.60;;;;;;5065887;28;20200;-48
2021/06/30 04:24:23;;;;;;;0.60;0.60;;;25.70;43.60;;;;;;5054600;28;20791;-45
2021/06/30 04:26:50;;;;;;;1.17;1.02;;;25.70;43.60;;;;;;5060562;28;20700;-44
2021/06/30 04:29:16;;;;;;;1.15;0.88;;;25.60;43.50;;;;;;5060195;28;20647;-47
2021/06/30 04:31:43;;;;;;;0.98;0.60;;;25.70;43.60;;;;;;5052950;28;20268;-50
2021/06/30 04:34:09;;;;;;;0.55;0.55;;;25.60;43.50;;;;;;5052696;28;20205;-48
2021/06/30 04:36:36;;;;;;;0.80;0.80;;;25.70;43.60;;;;;;5051654;28;20204;-46
2021/06/30 04:39:02;;;;;;;1.42;1.00;;;25.60;43.50;;;;;;5063774;28;20248;-51
2021/06/30 04:41:28;;;;;;;0.70;0.70;;;25.60;43.50;;;;;;5060609;28;20235;-42
2021/06/30 04:43:55;;;;;;;0.70;0.70;;;25.70;43.60;;;;;;5052457;28;20316;-46
2021/06/30 04:46:21;;;;;;;1.10;0.68;;;25.70;43.60;;;;;;5051750;28;20209;-48
2021/06/30 04:48:48;;;;;;;0.85;0.80;;;25.70;43.60;;;;;;5052878;28;20225;-43
2021/06/30 04:51:14;;;;;;;0.82;0.60;;;25.70;43.60;;;;;;5063820;28;20280;-46
2021/06/30 04:53:41;;;;;;;0.52;0.52;;;25.70;43.50;;;;;;5053170;28;20198;-43
2021/06/30 04:56:07;;;;;;;0.77;0.77;;;25.70;43.50;;;;;;5054398;28;20226;-43
2021/06/30 04:58:34;;;;;;;0.95;0.68;;;25.60;43.40;;;;;;5054013;28;20218;-45
2021/06/30 05:01:00;;;;;;;0.73;0.73;;;25.70;43.50;;;;;;5054887;28;20201;-48
2021/06/30 05:03:28;;;;;;;1.48;0.80;;;25.70;43.40;;;;;;5073116;28;20316;-45
2021/06/30 05:05:54;;;;;;;0.90;0.90;;;25.60;43.40;;;;;;5062093;28;20194;-43
2021/06/30 05:08:21;;;;;;;0.80;0.80;;;25.70;43.40;;;;;;5064639;28;20228;-51
2021/06/30 05:10:47;;;;;;;1.17;0.70;;;25.60;43.40;;;;;;5063808;28;20434;-51
2021/06/30 05:13:14;;;;;;;0.65;0.65;;;25.60;43.40;;;;;;5064655;28;20340;-52
2021/06/30 05:15:40;;;;;;;0.70;0.70;;;25.70;43.40;;;;;;5052807;28;20292;-46
2021/06/30 05:18:07;;;;;;;1.10;1.00;;;25.60;43.40;;;;;;5052754;28;20679;-48
2021/06/30 05:20:34;;;;;;;0.80;0.80;;;25.60;43.40;;;;;;5051198;28;20209;-50
2021/06/30 05:23:00;;;;;;;0.70;0.70;;;25.70;43.40;;;;;;5059553;28;20201;-49
2021/06/30 05:25:26;;;;;;;0.65;0.65;;;25.70;43.40;;;;;;5052580;28;20198;-44
2021/06/30 05:27:53;;;;;;;1.42;0.80;;;25.70;43.40;;;;;;5051895;28;20339;-48
2021/06/30 05:30:19;;;;;;;0.80;0.80;;;25.70;43.30;;;;;;5071253;28;20295;-50
2021/06/30 05:32:46;;;;;;;0.85;0.85;;;25.60;43.30;;;;;;5061489;28;20221;-53
2021/06/30 05:35:12;;;;;;;1.23;0.95;;;25.70;43.30;;;;;;5052424;28;20734;-48
2021/06/30 05:37:39;;;;;;;0.70;0.70;;;25.70;43.30;;;;;;5051446;28;20478;-50
2021/06/30 05:40:06;;;;;;;0.60;0.60;;;25.70;43.40;;;;;;5052259;28;20334;-42
2021/06/30 05:42:32;;;;;;;0.80;0.80;;;25.70;43.30;;;;;;5058015;28;20204;-44
2021/06/30 05:44:58;;;;;;;0.70;0.70;;;25.70;43.30;;;;;;5056157;28;20316;-49
2021/06/30 05:47:25;;;;;;;0.70;0.70;;;25.70;43.50;;;;;;5050078;28;20665;-48
2021/06/30 05:49:51;;;;;;;1.15;0.60;;;25.60;43.30;;;;;;5051530;28;20224;-45
2021/06/30 05:52:18;;;;;;;0.73;0.73;;;25.70;43.60;;;;;;5062658;28;20198;-44
2021/06/30 05:54:44;;;;;;;0.68;0.68;;;25.60;43.50;;;;;;5051940;28;20210;-47
2021/06/30 05:57:11;;;;;;;0.60;0.60;;;25.70;43.60;;;;;;5051573;28;20197;-44
2021/06/30 05:59:37;;;;;;;0.88;0.73;;;25.70;43.60;;;;;;5053473;28;20206;-45
2021/06/30 06:02:04;;;;;;;0.80;0.80;;;25.70;43.70;;;;;;5060419;28;20206;-49
2021/06/30 06:04:30;;;;;;;1.88;0.77;;;25.70;43.70;;;;;;5052721;28;20341;-46
2021/06/30 06:06:57;;;;;;;1.25;0.68;;;25.70;43.80;;;;;;5051148;28;20219;-45
2021/06/30 06:09:23;;;;;;;0.73;0.73;;;25.70;44.50;;;;;;5052674;28;20296;-48
2021/06/30 06:11:50;;;;;;;0.60;0.60;;;25.70;43.80;;;;;;5058928;28;20697;-44
2021/06/30 06:14:16;;;;;;;0.80;0.80;;;25.70;43.80;;;;;;5060913;28;20322;-47
2021/06/30 06:16:43;;;;;;;1.35;0.80;;;25.70;43.80;;;;;;5051146;28;20799;-47
2021/06/30 06:19:09;;;;;;;0.70;0.70;;;25.70;43.70;;;;;;5059772;28;20675;-45
2021/06/30 06:21:36;;;;;;;1.00;0.70;;;25.70;43.70;;;;;;5051338;28;20284;-46
2021/06/30 06:24:03;;;;;;;1.23;0.70;;;25.70;43.70;;;;;;5050975;28;20241;-42
2021/06/30 06:26:29;;;;;;;0.85;0.63;;;25.70;43.80;;;;;;5050711;28;20673;-47
2021/06/30 06:28:55;;;;;;;0.75;0.70;;;25.70;43.90;;;;;;5050242;28;20597;-45
2021/06/30 06:31:22;;;;;;;1.30;0.82;;;25.70;43.90;;;;;;5051380;28;20565;-49
2021/06/30 06:33:48;;;;;;;0.77;0.77;;;25.70;44.00;;;;;;5050830;28;20564;-46
2021/06/30 06:36:15;;;;;;;0.70;0.70;;;25.70;44.00;;;;;;5051713;28;20289;-43
2021/06/30 06:38:41;;;;;;;0.98;0.82;;;25.70;44.00;;;;;;5064733;22;20249;-38
2021/06/30 06:41:08;;;;;;;1.27;1.05;;;25.70;44.10;;;;;;5066761;28;20523;-44
2021/06/30 06:43:35;;;;;;;0.73;0.73;;;25.70;44.10;;;;;;5069490;28;21053;-46
2021/06/30 06:46:01;;;;;;;1.02;1.02;;;25.70;44.20;;;;;;5068839;28;20225;-40
2021/06/30 06:48:27;;;;;;;1.30;0.80;;;25.70;44.20;;;;;;5059411;28;20244;-40
2021/06/30 06:50:54;;;;;;;1.67;0.70;;;25.70;44.20;;;;;;5030820;28;20205;-38
2021/06/30 06:53:20;;;;;;;1.35;0.80;;;25.70;44.20;;;;;;5031250;28;20301;-45
2021/06/30 06:55:47;;;;;;;1.20;0.70;;;25.70;44.30;;;;;;5030263;28;20204;-41
2021/06/30 06:58:14;;;;;;;1.40;0.80;;;25.70;44.30;;;;;;5029535;28;20261;-41
2021/06/30 07:00:40;;;;;;;0.60;0.60;;;25.70;44.30;;;;;;5043124;28;20291;-40
2021/06/30 07:03:07;;;;;;;0.73;0.70;;;25.70;44.20;;;;;;5033923;28;20289;-40
2021/06/30 07:05:33;;;;;;;0.63;0.63;;;25.70;44.20;;;;;;5027101;28;20318;-37
2021/06/30 07:08:00;;;;;;;1.75;0.90;;;25.70;44.30;;;;;;5029426;28;20258;-41
2021/06/30 07:10:26;;;;;;;2.33;1.15;;;25.70;44.20;;;;;;5036580;28;20202;-45
2021/06/30 07:12:53;;;;;;;1.20;0.88;;;25.70;43.50;;;;;;5042908;28;20205;-43
2021/06/30 07:15:19;;;;;;;1.65;1.23;;;25.70;42.50;;;;;;5029447;28;20203;-38
2021/06/30 07:17:46;;;;;;;1.88;0.73;;;25.70;41.50;;;;;;5030578;28;20782;-43
2021/06/30 07:20:12;;;;;;;2.60;0.68;;;25.60;40.60;;;;;;5031304;28;20290;-56
2021/06/30 07:22:39;;;;;;;0.55;0.55;;;24.40;35.90;;;;;;5029973;28;20289;-39
2021/06/30 07:25:05;;;;;;;0.50;0.50;;;21.90;38.80;;;;;;5028917;28;20236;-42
2021/06/30 07:27:31;;;;;;;0.50;0.50;;;21.60;40.80;;;;;;5034226;28;20231;-38
2021/06/30 07:29:58;;;;;;;0.63;0.60;;;21.40;41.30;;;;;;5044883;28;20202;-38
2021/06/30 07:32:24;;;;;;;0.65;0.65;;;22.40;40.90;;;;;;5044023;28;20208;-39
2021/06/30 07:34:51;;;;;;;0.70;0.70;;;23.20;40.70;;;;;;5045305;28;20202;-38
2021/06/30 07:37:17;;;;;;;1.17;0.63;;;23.70;39.30;;;;;;5043332;28;20226;-44
2021/06/30 07:39:44;;;;;;;0.60;0.60;;;24.00;38.50;;;;;;5029476;28;20594;-38
2021/06/30 07:42:10;;;;;;;0.60;0.60;;;24.30;38.40;;;;;;5037457;28;20199;-37
2021/06/30 07:44:37;;;;;;;0.90;0.68;;;24.50;38.30;;;;;;5039450;28;20230;-45
2021/06/30 07:47:03;;;;;;;0.52;0.52;;;24.60;38.00;;;;;;5032636;28;20245;-37
2021/06/30 07:49:29;;;;;;;0.60;0.60;;;24.70;38.00;;;;;;5029409;28;20397;-42
2021/06/30 07:51:56;;;;;;;0.60;0.60;;;24.80;37.70;;;;;;5031066;28;20198;-40
2021/06/30 07:54:22;;;;;;;4.55;1.30;;;24.90;37.80;;;;;;5029549;28;20203;-37
2021/06/30 07:56:49;;;;;;;0.50;0.50;;;24.90;37.60;;;;;;5028354;28;20308;-43
2021/06/30 07:59:16;;;;;;;0.68;0.68;;;24.90;37.30;;;;;;5029346;28;20674;-37
2021/06/30 08:01:42;;;;;;;0.60;0.60;;;25.00;37.30;;;;;;5032591;28;20305;-44
2021/06/30 08:04:09;;;;;;;0.60;0.60;;;25.00;36.90;;;;;;5044425;28;20225;-43
2021/06/30 08:06:36;;;;;;;0.60;0.60;;;25.00;37.30;;;;;;5041307;28;20226;-41
2021/06/30 08:09:02;;;;;;;0.68;0.60;;;25.10;36.70;;;;;;5042346;28;20563;-48
2021/06/30 08:11:29;;;;;;;0.60;0.60;;;25.10;36.60;;;;;;5051422;28;20202;-40
2021/06/30 08:13:55;;;;;;;0.98;0.52;;;25.10;35.90;;;;;;5042485;28;20634;-49
2021/06/30 08:16:22;;;;;;;0.57;0.57;;;25.10;35.50;;;;;;5046464;28;20325;-40
2021/06/30 08:18:48;;;;;;;0.60;0.60;;;25.20;34.70;;;;;;5048121;28;20202;-41
2021/06/30 08:21:15;;;;;;;1.45;0.55;;;25.20;35.20;;;;;;5046155;28;20202;-42
2021/06/30 08:23:41;;;;;;;0.60;0.60;;;25.20;35.00;;;;;;5037060;28;20690;-43
2021/06/30 08:26:08;;;;;;;1.10;0.60;;;25.20;34.90;;;;;;5035962;28;20202;-48
2021/06/30 08:28:34;;;;;;;0.88;0.80;;;25.20;35.10;;;;;;5048818;28;20240;-42
2021/06/30 08:31:01;;;;;;;4.82;1.20;;;25.20;34.40;;;;;;5045695;28;20462;-45
2021/06/30 08:33:27;;;;;;;2.10;0.98;;;25.20;35.00;;;;;;5032041;28;20261;-40
2021/06/30 08:35:55;;;;;;;1.67;0.80;;;25.30;34.90;;;;;;5045047;28;20287;-40
2021/06/30 08:38:21;;;;;;;0.98;0.70;;;25.20;34.70;;;;;;5038601;28;20203;-42
2021/06/30 08:40:48;;;;;;;1.85;0.70;;;25.20;34.80;;;;;;5032563;28;20214;-43
2021/06/30 08:43:14;;;;;;;0.68;0.68;;;25.30;34.40;;;;;;5041497;28;20286;-49
2021/06/30 08:45:41;;;;;;;0.77;0.70;;;25.30;34.20;;;;;;5043989;28;20230;-45
2021/06/30 08:48:07;;;;;;;1.45;0.70;;;25.20;34.20;;;;;;5035156;28;20300;-46
2021/06/30 08:50:35;;;;;;;3.05;0.60;;;25.20;34.20;;;;;;5044622;28;20203;-40
2021/06/30 08:53:01;;;;;;;0.70;0.70;;;25.20;34.20;;;;;;5034541;28;20247;-45
2021/06/30 08:55:27;;;;;;;1.08;0.70;;;25.20;34.30;;;;;;5037460;28;20202;-49
2021/06/30 08:57:54;;;;;;;4.60;0.73;;;25.20;34.20;;;;;;5047521;28;20213;-49
2021/06/30 09:00:21;;;;;;;1.38;0.80;;;25.20;34.80;;;;;;5042516;28;20293;-35
2021/06/30 09:02:49;;;;;;;8.27;0.90;;;25.30;35.20;;;;;;5033922;28;20194;-48
2021/06/30 09:05:36;;;;;;;4.00;0.90;;;25.30;35.30;;;;;;5032176;28;20223;-39
2021/06/30 09:08:03;;;;;;;0.88;0.70;;;25.30;35.40;;;;;;5031725;28;20233;-47
2021/06/30 09:10:29;;;;;;;0.52;0.52;;;25.30;35.60;;;;;;5033385;28;20582;-43
2021/06/30 09:12:56;;;;;;;1.38;0.60;;;25.30;35.20;;;;;;5037673;28;20218;-39
2021/06/30 09:15:27;;;;;;;1.05;0.60;;;25.30;34.90;;;;;;5037749;28;20201;-36
2021/06/30 09:17:53;;;;;;;1.17;0.70;;;25.30;34.60;;;;;;5032235;28;20219;-35
2021/06/30 09:20:20;;;;;;;0.73;0.70;;;25.40;34.60;;;;;;5036324;28;20289;-39
2021/06/30 09:22:46;;;;;;;0.85;0.70;;;25.40;35.30;;;;;;5032093;28;20693;-36
2021/06/30 09:25:12;;;;;;;1.00;0.57;;;25.40;35.40;;;;;;5043058;28;20226;-46
2021/06/30 09:27:39;;;;;;;1.35;0.65;;;25.40;35.60;;;;;;5034133;28;20226;-36
2021/06/30 09:30:06;;;;;;;0.80;0.80;;;25.40;35.80;;;;;;5038144;28;20210;-36
2021/06/30 09:32:32;;;;;;;1.63;0.82;;;25.40;35.40;;;;;;5034919;28;20727;-39
2021/06/30 09:34:59;;;;;;;3.17;0.90;;;25.40;35.90;;;;;;5040694;28;20564;-36
2021/06/30 09:37:25;;;;;;;1.67;0.95;;;25.40;36.20;;;;;;5045309;28;20588;-36
2021/06/30 09:39:52;;;;;;;4.63;0.80;;;25.40;35.50;;;;;;5031468;28;20697;-39
2021/06/30 09:42:18;;;;;;;2.33;1.10;;;25.40;35.10;;;;;;5032038;28;20967;-46
2021/06/30 09:44:45;;;;;;;1.45;0.60;;;25.40;35.10;;;;;;5049672;28;20324;-40
2021/06/30 09:47:11;;;;;;;2.38;0.70;;;25.40;35.10;;;;;;5032148;28;20321;-36
2021/06/30 09:49:39;;;;;;;0.60;0.57;;;25.40;35.10;;;;;;5032556;28;20310;-36
2021/06/30 09:52:05;;;;;;;1.60;0.82;;;25.20;35.20;;;;;;5044545;28;20217;-36
2021/06/30 09:54:32;;;;;;;2.80;0.70;;;25.30;35.10;;;;;;5033327;28;20207;-37
2021/06/30 09:56:58;;;;;;;1.95;0.77;;;25.30;35.20;;;;;;5034606;28;20321;-42
2021/06/30 09:59:24;;;;;;;2.65;0.90;;;25.30;36.10;;;;;;5034563;28;20236;-45
2021/06/30 10:01:51;;;;;;;2.03;0.80;;;25.30;36.30;;;;;;5033505;28;20202;-46
2021/06/30 10:04:18;;;;;;;2.92;0.90;;;25.30;36.40;;;;;;5050571;28;20259;-36
2021/06/30 10:06:44;;;;;;;0.68;0.68;;;25.40;37.40;;;;;;5046582;28;20666;-37
2021/06/30 10:09:10;;;;;;;4.20;0.90;;;25.40;37.10;;;;;;5027708;28;20616;-36
2021/06/30 10:11:37;;;;;;;6.45;1.38;;;25.40;36.40;;;;;;5035163;28;20611;-40
2021/06/30 10:14:03;;;;;;;3.72;1.52;;;25.40;37.50;;;;;;5035017;28;20534;-36
2021/06/30 10:16:30;;;;;;;4.50;1.30;;;25.40;39.20;;;;;;5034675;28;20226;-39
2021/06/30 10:18:57;;;;;;;6.82;1.77;;;25.30;41.40;;;;;;5027392;28;20328;-37
2021/06/30 10:21:23;;;;;;;2.58;0.90;;;25.30;41.10;;;;;;5026805;28;20286;-50
2021/06/30 10:23:49;;;;;;;1.63;0.75;;;24.60;33.90;;;;;;5035167;28;20199;-42
2021/06/30 10:26:16;;;;;;;5.57;1.80;;;23.80;35.70;;;;;;5036068;28;20317;-36
2021/06/30 10:28:42;;;;;;;3.70;1.15;;;23.80;34.80;;;;;;5032920;28;20230;-40
2021/06/30 10:31:09;;;;;;;1.88;1.00;;;23.90;36.00;;;;;;5038536;28;20201;-39
2021/06/30 10:33:38;;;;;;;2.88;1.00;;;24.30;35.80;;;;;;5032179;28;20234;-43
2021/06/30 10:36:05;;;;;;;3.00;0.80;;;24.60;35.90;;;;;;5032782;28;20635;-47
2021/06/30 10:38:31;;;;;;;0.70;0.70;;;24.70;35.50;;;;;;5031113;28;20206;-46
2021/06/30 10:40:57;;;;;;;0.88;0.77;;;24.80;35.00;;;;;;5041903;28;20289;-48
2021/06/30 10:43:24;;;;;;;1.27;0.80;;;24.90;34.70;;;;;;5031823;28;20203;-40
2021/06/30 10:45:53;;;;;;;0.70;0.52;;;25.00;34.40;;;;;;5046506;28;20238;-39
2021/06/30 10:48:21;;;;;;;0.63;0.63;;;25.00;34.20;;;;;;5037529;28;20325;-36
2021/06/30 10:50:48;;;;;;;1.35;0.75;;;25.00;34.10;;;;;;5030917;28;20257;-47
2021/06/30 10:53:15;;;;;;;0.80;0.80;;;25.00;34.10;;;;;;5007081;28;20226;-53
2021/06/30 10:55:47;;;;;;;0.82;0.70;;;25.00;34.00;;;;;;4997653;28;20227;-46
2021/06/30 10:58:14;;;;;;;0.70;0.70;;;25.00;33.80;;;;;;4991910;28;20199;-36
2021/06/30 11:00:40;;;;;;;0.88;0.68;;;25.10;34.10;;;;;;4999867;28;20238;-42
2021/06/30 11:03:06;;;;;;;0.70;0.70;;;25.10;33.60;;;;;;4996106;28;20299;-41
2021/06/30 11:05:34;;;;;;;1.13;0.65;;;25.10;33.40;;;;;;4989579;28;20243;-41
2021/06/30 11:08:00;;;;;;;0.80;0.60;;;25.10;33.10;;;;;;5001066;28;20207;-41
2021/06/30 11:10:27;;;;;;;1.95;0.70;;;25.20;33.30;;;;;;4992648;28;20266;-38
2021/06/30 11:12:54;;;;;;;0.57;0.57;;;25.20;33.30;;;;;;4997754;28;20719;-36
2021/06/30 11:15:20;;;;;;;1.13;0.70;;;25.20;33.60;;;;;;4996700;28;20667;-37
2021/06/30 11:17:47;;;;;;;1.58;0.55;;;25.20;33.70;;;;;;4997642;28;20280;-46
2021/06/30 11:20:13;;;;;;;0.80;0.70;;;25.20;34.20;;;;;;5002735;28;20711;-45
2021/06/30 11:22:40;;;;;;;0.55;0.55;;;25.30;34.30;;;;;;5008146;28;20572;-39
2021/06/30 11:25:06;;;;;;;0.60;0.60;;;25.30;34.90;;;;;;4996079;28;20283;-38
2021/06/30 11:27:34;;;;;;;0.70;0.70;;;25.30;35.20;;;;;;4990075;28;20215;-44
2021/06/30 11:30:02;;;;;;;0.98;0.70;;;25.30;35.40;;;;;;5001214;28;20306;-40
2021/06/30 11:32:28;;;;;;;0.75;0.75;;;25.30;35.60;;;;;;5004064;28;20625;-41
2021/06/30 11:34:55;;;;;;;0.60;0.60;;;25.30;35.70;;;;;;5003515;28;20227;-38
2021/06/30 11:37:21;;;;;;;1.15;0.70;;;25.40;35.80;;;;;;4999500;28;20562;-36
2021/06/30 11:39:48;;;;;;;1.13;0.70;;;25.40;36.00;;;;;;5009639;28;20233;-37
2021/06/30 11:42:14;;;;;;;0.50;0.50;;;25.40;36.00;;;;;;5000658;28;20238;-40
2021/06/30 11:44:41;;;;;;;0.73;0.50;;;25.40;36.80;;;;;;4999114;28;20308;-37
2021/06/30 11:47:07;;;;;;;0.50;0.50;;;25.40;36.20;;;;;;5006136;28;20216;-47
2021/06/30 11:49:34;;;;;;;1.23;1.02;;;25.40;36.30;;;;;;4994218;28;20637;-39
2021/06/30 11:52:00;;;;;;;0.50;0.50;;;25.40;36.30;;;;;;5006238;28;20282;-37
2021/06/30 11:54:27;;;;;;;0.50;0.50;;;25.40;36.50;;;;;;5002400;28;20233;-38
2021/06/30 11:56:53;;;;;;;0.60;0.60;;;25.40;36.40;;;;;;4996339;28;20445;-37
2021/06/30 11:59:20;;;;;;;0.60;0.60;;;25.40;36.50;;;;;;4996248;28;20208;-38
2021/06/30 12:01:46;;;;;;;0.60;0.60;;;25.40;36.50;;;;;;5013722;28;20698;-38
2021/06/30 12:04:13;;;;;;;0.80;0.80;;;25.40;36.60;;;;;;5003447;28;20283;-40
2021/06/30 12:06:39;;;;;;;0.60;0.60;;;25.40;36.60;;;;;;5006653;28;20257;-41
2021/06/30 12:09:06;;;;;;;0.60;0.60;;;25.40;36.60;;;;;;5012574;28;20248;-42
2021/06/30 12:11:32;;;;;;;0.60;0.60;;;25.40;36.70;;;;;;5013605;28;20234;-38
2021/06/30 12:13:59;;;;;;;0.50;0.50;;;25.40;36.80;;;;;;5004063;28;20200;-41
2021/06/30 12:16:25;;;;;;;0.60;0.60;;;25.40;36.80;;;;;;5010791;28;20254;-48
2021/06/30 12:18:52;;;;;;;0.85;0.60;;;25.40;36.80;;;;;;4999320;28;20209;-52
2021/06/30 12:21:19;;;;;;;0.52;0.52;;;25.40;36.90;;;;;;5003024;28;20225;-37
2021/06/30 12:23:45;;;;;;;0.60;0.60;;;25.40;36.90;;;;;;4993198;28;20215;-47
2021/06/30 12:26:13;;;;;;;0.50;0.50;;;25.40;36.90;;;;;;4999058;28;20234;-50
2021/06/30 12:28:40;;;;;;;0.77;0.60;;;25.40;37.00;;;;;;5003539;28;20214;-41
2021/06/30 12:31:06;;;;;;;0.68;0.68;;;25.40;36.40;;;;;;4998192;28;20205;-47
2021/06/30 12:33:33;;;;;;;0.98;0.88;;;25.40;35.00;;;;;;5007969;28;20207;-46
2021/06/30 12:35:59;;;;;;;1.67;0.80;;;25.30;34.30;;;;;;5003542;28;20306;-40
2021/06/30 12:38:27;;;;;;;3.20;0.70;;;25.30;34.20;;;;;;4998264;28;20204;-46
2021/06/30 12:40:53;;;;;;;1.25;0.80;;;25.30;34.20;;;;;;5021603;23;20230;-49
2021/06/30 12:43:20;;;;;;;1.90;0.70;;;25.30;34.20;;;;;;5011977;28;20199;-48